sensor_id;sensor_type;location;lat;lon;timestamp;pressure;altitude;pressure_sealevel;temperature;humidity
24013;BME280;12220;50.194;18.948;2023-07-31T00:00:26;101480.28;;;19.68;74.52
24013;BME280;12220;50.194;18.948;2023-07-31T00:02:33;101482.05;;;19.69;74.59
24013;BME280;12220;50.194;18.948;2023-07-31T00:04:34;101478.41;;;19.69;74.54
24013;BME280;12220;50.194;18.948;2023-07-31T00:06:40;101477.50;;;19.68;74.57
24013;BME280;12220;50.194;18.948;2023-07-31T00:08:41;101490.38;;;19.69;74.58
24013;BME280;12220;50.194;18.948;2023-07-31T00:10:42;101487.77;;;19.68;74.52
24013;BME280;12220;50.194;18.948;2023-07-31T00:12:45;101478.41;;;19.69;74.48
24013;BME280;12220;50.194;18.948;2023-07-31T00:14:55;101473.86;;;19.68;74.49
24013;BME280;12220;50.194;18.948;2023-07-31T00:16:56;101478.55;;;19.67;74.53
24013;BME280;12220;50.194;18.948;2023-07-31T00:18:57;101473.15;;;19.66;74.60
24013;BME280;12220;50.194;18.948;2023-07-31T00:20:59;101471.38;;;19.65;74.60
24013;BME280;12220;50.194;18.948;2023-07-31T00:23:10;101475.34;;;19.62;74.62
24013;BME280;12220;50.194;18.948;2023-07-31T00:25:11;101487.62;;;19.60;74.64
24013;BME280;12220;50.194;18.948;2023-07-31T00:27:21;101485.89;;;19.59;74.61
24013;BME280;12220;50.194;18.948;2023-07-31T00:29:22;101475.80;;;19.58;74.64
24013;BME280;12220;50.194;18.948;2023-07-31T00:31:26;101484.98;;;19.58;74.66
24013;BME280;12220;50.194;18.948;2023-07-31T00:33:27;101481.49;;;19.56;74.67
24013;BME280;12220;50.194;18.948;2023-07-31T00:35:29;101483.52;;;19.54;74.66
24013;BME280;12220;50.194;18.948;2023-07-31T00:37:30;101490.99;;;19.54;74.65
24013;BME280;12220;50.194;18.948;2023-07-31T00:39:41;101494.94;;;19.51;74.66
24013;BME280;12220;50.194;18.948;2023-07-31T00:41:42;101495.24;;;19.48;74.64
24013;BME280;12220;50.194;18.948;2023-07-31T00:43:46;101490.84;;;19.45;74.68
24013;BME280;12220;50.194;18.948;2023-07-31T00:45:48;101491.89;;;19.44;74.68
24013;BME280;12220;50.194;18.948;2023-07-31T00:47:56;101500.52;;;19.41;74.67
24013;BME280;12220;50.194;18.948;2023-07-31T00:49:58;101495.12;;;19.40;74.68
24013;BME280;12220;50.194;18.948;2023-07-31T00:51:59;101500.07;;;19.36;74.70
24013;BME280;12220;50.194;18.948;2023-07-31T00:54:01;101493.80;;;19.34;74.73
24013;BME280;12220;50.194;18.948;2023-07-31T00:56:11;101494.09;;;19.31;74.71
24013;BME280;12220;50.194;18.948;2023-07-31T00:58:13;101500.66;;;19.30;74.72
24013;BME280;12220;50.194;18.948;2023-07-31T01:00:14;101504.45;;;19.29;74.74
24013;BME280;12220;50.194;18.948;2023-07-31T01:02:15;101129.80;;;16.94;74.62
24013;BME280;12220;50.194;18.948;2023-07-31T01:04:26;101498.48;;;19.24;74.77
24013;BME280;12220;50.194;18.948;2023-07-31T01:06:53;101501.41;;;19.22;74.78
24013;BME280;12220;50.194;18.948;2023-07-31T01:11:02;101501.81;;;19.18;74.80
24013;BME280;12220;50.194;18.948;2023-07-31T01:13:07;101496.27;;;19.18;74.72
24013;BME280;12220;50.194;18.948;2023-07-31T01:15:09;101501.10;;;19.15;74.73
24013;BME280;12220;50.194;18.948;2023-07-31T01:17:16;101502.26;;;19.13;74.67
24013;BME280;12220;50.194;18.948;2023-07-31T01:19:21;101501.39;;;19.12;74.67
24013;BME280;12220;50.194;18.948;2023-07-31T01:23:51;101516.58;;;19.08;74.73
24013;BME280;12220;50.194;18.948;2023-07-31T01:26:03;101509.41;;;19.06;74.77
24013;BME280;12220;50.194;18.948;2023-07-31T01:28:13;101513.35;;;19.03;74.74
24013;BME280;12220;50.194;18.948;2023-07-31T01:30:17;101517.31;;;19.01;74.73
24013;BME280;12220;50.194;18.948;2023-07-31T01:32:22;101520.38;;;18.97;74.73
24013;BME280;12220;50.194;18.948;2023-07-31T01:34:26;101518.91;;;18.93;74.67
24013;BME280;12220;50.194;18.948;2023-07-31T01:36:28;101525.75;;;18.89;74.63
24013;BME280;12220;50.194;18.948;2023-07-31T01:38:30;101523.67;;;18.81;74.77
24013;BME280;12220;50.194;18.948;2023-07-31T01:40:31;101526.41;;;18.72;75.42
24013;BME280;12220;50.194;18.948;2023-07-31T01:42:32;101529.47;;;18.69;75.10
24013;BME280;12220;50.194;18.948;2023-07-31T01:44:40;101533.40;;;18.66;75.06
24013;BME280;12220;50.194;18.948;2023-07-31T01:46:41;101527.13;;;18.64;75.07
24013;BME280;12220;50.194;18.948;2023-07-31T01:48:43;101526.38;;;18.62;75.19
24013;BME280;12220;50.194;18.948;2023-07-31T01:50:44;101530.16;;;18.61;75.21
24013;BME280;12220;50.194;18.948;2023-07-31T01:52:54;101521.98;;;18.59;75.16
24013;BME280;12220;50.194;18.948;2023-07-31T01:54:56;101524.90;;;18.58;75.23
24013;BME280;12220;50.194;18.948;2023-07-31T01:56:58;101535.99;;;18.58;75.28
24013;BME280;12220;50.194;18.948;2023-07-31T01:58:59;101535.84;;;18.59;75.53
24013;BME280;12220;50.194;18.948;2023-07-31T02:01:09;101534.98;;;18.59;75.13
24013;BME280;12220;50.194;18.948;2023-07-31T02:03:10;101541.82;;;18.55;75.34
24013;BME280;12220;50.194;18.948;2023-07-31T02:05:12;101529.87;;;18.54;75.28
24013;BME280;12220;50.194;18.948;2023-07-31T02:07:13;101532.77;;;18.53;75.32
24013;BME280;12220;50.194;18.948;2023-07-31T02:09:24;101534.80;;;18.51;75.26
24013;BME280;12220;50.194;18.948;2023-07-31T02:11:31;101534.50;;;18.44;75.57
24013;BME280;12220;50.194;18.948;2023-07-31T02:13:32;101532.15;;;18.39;75.72
24013;BME280;12220;50.194;18.948;2023-07-31T02:15:34;101528.75;;;18.36;75.77
24013;BME280;12220;50.194;18.948;2023-07-31T02:17:39;101533.59;;;18.34;75.96
24013;BME280;12220;50.194;18.948;2023-07-31T02:19:40;101529.05;;;18.33;76.02
24013;BME280;12220;50.194;18.948;2023-07-31T02:21:42;101540.27;;;18.31;76.20
24013;BME280;12220;50.194;18.948;2023-07-31T02:23:43;101530.20;;;18.30;76.12
24013;BME280;12220;50.194;18.948;2023-07-31T02:25:54;101534.11;;;18.27;76.33
24013;BME280;12220;50.194;18.948;2023-07-31T02:27:55;101530.62;;;18.25;76.59
24013;BME280;12220;50.194;18.948;2023-07-31T02:29:56;101525.20;;;18.24;76.51
24013;BME280;12220;50.194;18.948;2023-07-31T02:32:00;101532.52;;;18.25;76.63
24013;BME280;12220;50.194;18.948;2023-07-31T02:34:09;101526.08;;;18.24;76.85
24013;BME280;12220;50.194;18.948;2023-07-31T02:36:10;101524.48;;;18.22;76.74
24013;BME280;12220;50.194;18.948;2023-07-31T02:38:11;101546.66;;;18.22;77.00
24013;BME280;12220;50.194;18.948;2023-07-31T02:40:13;101545.47;;;18.24;76.79
24013;BME280;12220;50.194;18.948;2023-07-31T02:42:23;101539.94;;;18.24;76.81
24013;BME280;12220;50.194;18.948;2023-07-31T02:44:25;101547.25;;;18.25;76.73
24013;BME280;12220;50.194;18.948;2023-07-31T02:46:26;101545.34;;;18.26;76.87
24013;BME280;12220;50.194;18.948;2023-07-31T02:48:28;101551.79;;;18.26;76.72
24013;BME280;12220;50.194;18.948;2023-07-31T02:50:38;101561.98;;;18.26;76.72
24013;BME280;12220;50.194;18.948;2023-07-31T02:52:40;101561.98;;;18.26;76.74
24013;BME280;12220;50.194;18.948;2023-07-31T02:54:41;101566.65;;;18.25;76.77
24013;BME280;12220;50.194;18.948;2023-07-31T02:56:42;101572.92;;;18.27;76.74
24013;BME280;12220;50.194;18.948;2023-07-31T02:58:53;101567.38;;;18.27;76.73
24013;BME280;12220;50.194;18.948;2023-07-31T03:00:57;101574.97;;;18.25;76.79
24013;BME280;12220;50.194;18.948;2023-07-31T03:02:59;101578.60;;;18.26;76.73
24013;BME280;12220;50.194;18.948;2023-07-31T03:05:00;101582.29;;;18.26;76.69
24013;BME280;12220;50.194;18.948;2023-07-31T03:07:08;101577.60;;;18.27;76.60
24013;BME280;12220;50.194;18.948;2023-07-31T03:09:09;101577.75;;;18.25;76.56
24013;BME280;12220;50.194;18.948;2023-07-31T03:11:12;101579.51;;;18.26;76.64
24013;BME280;12220;50.194;18.948;2023-07-31T03:13:14;101578.48;;;18.27;76.50
24013;BME280;12220;50.194;18.948;2023-07-31T03:15:23;101579.51;;;18.26;76.55
24013;BME280;12220;50.194;18.948;2023-07-31T03:17:24;101578.60;;;18.26;76.46
24013;BME280;12220;50.194;18.948;2023-07-31T03:19:25;101578.75;;;18.24;76.47
24013;BME280;12220;50.194;18.948;2023-07-31T03:21:26;101572.34;;;18.24;76.44
24013;BME280;12220;50.194;18.948;2023-07-31T03:23:38;101573.20;;;18.24;76.34
24013;BME280;12220;50.194;18.948;2023-07-31T03:25:54;101579.92;;;18.22;76.62
24013;BME280;12220;50.194;18.948;2023-07-31T03:27:48;101579.17;;;18.20;76.51
24013;BME280;12220;50.194;18.948;2023-07-31T03:29:49;101581.20;;;18.18;76.36
24013;BME280;12220;50.194;18.948;2023-07-31T03:31:52;101583.08;;;18.17;76.37
24013;BME280;12220;50.194;18.948;2023-07-31T03:33:54;101587.77;;;18.17;76.39
24013;BME280;12220;50.194;18.948;2023-07-31T03:35:55;101587.77;;;18.17;76.37
24013;BME280;12220;50.194;18.948;2023-07-31T03:37:57;101590.53;;;18.17;76.30
24013;BME280;12220;50.194;18.948;2023-07-31T03:40:08;101603.53;;;18.16;76.21
24013;BME280;12220;50.194;18.948;2023-07-31T03:42:09;101604.67;;;18.14;76.19
24013;BME280;12220;50.194;18.948;2023-07-31T03:44:11;101604.95;;;18.10;76.20
24013;BME280;12220;50.194;18.948;2023-07-31T03:46:12;101607.71;;;18.10;76.27
24013;BME280;12220;50.194;18.948;2023-07-31T03:48:22;101605.68;;;18.12;76.30
24013;BME280;12220;50.194;18.948;2023-07-31T03:50:23;101606.43;;;18.15;76.35
24013;BME280;12220;50.194;18.948;2023-07-31T03:52:26;101616.11;;;18.20;76.31
24013;BME280;12220;50.194;18.948;2023-07-31T03:54:27;101608.52;;;18.22;76.22
24013;BME280;12220;50.194;18.948;2023-07-31T03:56:37;101604.46;;;18.26;76.11
24013;BME280;12220;50.194;18.948;2023-07-31T03:58:39;101597.77;;;18.29;76.07
24013;BME280;12220;50.194;18.948;2023-07-31T04:00:40;101593.82;;;18.32;75.97
24013;BME280;12220;50.194;18.948;2023-07-31T04:02:42;101606.53;;;18.34;75.91
24013;BME280;12220;50.194;18.948;2023-07-31T04:04:52;101604.49;;;18.36;75.82
24013;BME280;12220;50.194;18.948;2023-07-31T04:06:53;101602.62;;;18.37;75.88
24013;BME280;12220;50.194;18.948;2023-07-31T04:08:54;101608.16;;;18.37;75.68
24013;BME280;12220;50.194;18.948;2023-07-31T04:10:55;101599.57;;;18.40;75.68
24013;BME280;12220;50.194;18.948;2023-07-31T04:13:07;101604.97;;;18.41;75.56
24013;BME280;12220;50.194;18.948;2023-07-31T04:15:11;101616.93;;;18.42;75.54
24013;BME280;12220;50.194;18.948;2023-07-31T04:17:12;101604.11;;;18.41;75.46
24013;BME280;12220;50.194;18.948;2023-07-31T04:19:14;101602.20;;;18.41;75.34
24013;BME280;12220;50.194;18.948;2023-07-31T04:21:21;101604.11;;;18.41;75.30
24013;BME280;12220;50.194;18.948;2023-07-31T04:23:23;101599.70;;;18.38;75.33
24013;BME280;12220;50.194;18.948;2023-07-31T04:25:24;101603.48;;;18.37;75.32
24013;BME280;12220;50.194;18.948;2023-07-31T04:27:25;101598.84;;;18.38;75.31
24013;BME280;12220;50.194;18.948;2023-07-31T04:29:36;101603.20;;;18.40;75.39
24013;BME280;12220;50.194;18.948;2023-07-31T04:31:37;101599.42;;;18.41;75.39
24013;BME280;12220;50.194;18.948;2023-07-31T04:33:39;101606.73;;;18.42;75.30
24013;BME280;12220;50.194;18.948;2023-07-31T04:35:40;101615.05;;;18.42;75.25
24013;BME280;12220;50.194;18.948;2023-07-31T04:37:51;101609.51;;;18.42;75.30
24013;BME280;12220;50.194;18.948;2023-07-31T04:39:52;101612.28;;;18.42;75.32
24013;BME280;12220;50.194;18.948;2023-07-31T04:41:57;101614.77;;;18.45;75.32
24013;BME280;12220;50.194;18.948;2023-07-31T04:43:58;101612.73;;;18.47;75.28
24013;BME280;12220;50.194;18.948;2023-07-31T04:46:06;101622.67;;;18.50;75.20
24013;BME280;12220;50.194;18.948;2023-07-31T04:48:07;101624.59;;;18.50;75.14
24013;BME280;12220;50.194;18.948;2023-07-31T04:50:09;101624.30;;;18.53;75.11
24013;BME280;12220;50.194;18.948;2023-07-31T04:52:10;101626.08;;;18.54;74.98
24013;BME280;12220;50.194;18.948;2023-07-31T04:54:21;101626.80;;;18.56;74.90
24013;BME280;12220;50.194;18.948;2023-07-31T04:56:22;101624.89;;;18.56;74.88
24013;BME280;12220;50.194;18.948;2023-07-31T04:58:23;101639.38;;;18.60;74.86
24013;BME280;12220;50.194;18.948;2023-07-31T05:00:27;101626.38;;;18.60;74.80
24013;BME280;12220;50.194;18.948;2023-07-31T05:02:36;101629.90;;;18.62;74.73
24013;BME280;12220;50.194;18.948;2023-07-31T05:04:37;101625.95;;;18.65;74.67
24013;BME280;12220;50.194;18.948;2023-07-31T05:06:38;101621.45;;;18.64;74.59
24013;BME280;12220;50.194;18.948;2023-07-31T05:08:39;101623.17;;;18.65;74.60
24013;BME280;12220;50.194;18.948;2023-07-31T05:10:51;101616.63;;;18.66;74.36
24013;BME280;12220;50.194;18.948;2023-07-31T05:12:52;101623.93;;;18.67;74.33
24013;BME280;12220;50.194;18.948;2023-07-31T05:14:54;101623.93;;;18.67;74.36
24013;BME280;12220;50.194;18.948;2023-07-31T05:16:55;101622.75;;;18.70;74.35
24013;BME280;12220;50.194;18.948;2023-07-31T05:19:05;101625.42;;;18.71;74.28
24013;BME280;12220;50.194;18.948;2023-07-31T05:21:07;101628.92;;;18.73;74.25
24013;BME280;12220;50.194;18.948;2023-07-31T05:23:08;101631.55;;;18.75;74.16
24013;BME280;12220;50.194;18.948;2023-07-31T05:25:09;101627.77;;;18.76;74.10
24013;BME280;12220;50.194;18.948;2023-07-31T05:27:20;101634.91;;;18.78;73.92
24013;BME280;12220;50.194;18.948;2023-07-31T05:29:21;101633.18;;;18.77;73.72
24013;BME280;12220;50.194;18.948;2023-07-31T05:31:23;101633.91;;;18.79;73.78
24013;BME280;12220;50.194;18.948;2023-07-31T05:33:25;101634.52;;;18.83;73.68
24013;BME280;12220;50.194;18.948;2023-07-31T05:35:35;101630.45;;;18.87;73.63
24013;BME280;12220;50.194;18.948;2023-07-31T05:37:36;101629.30;;;18.90;73.46
24013;BME280;12220;50.194;18.948;2023-07-31T05:39:37;101632.84;;;18.92;73.30
24013;BME280;12220;50.194;18.948;2023-07-31T05:41:39;101628.00;;;18.94;73.19
24013;BME280;12220;50.194;18.948;2023-07-31T05:43:50;101634.28;;;18.96;73.11
24013;BME280;12220;50.194;18.948;2023-07-31T05:45:52;101632.27;;;18.98;72.92
24013;BME280;12220;50.194;18.948;2023-07-31T05:47:53;101637.82;;;18.98;72.63
24013;BME280;12220;50.194;18.948;2023-07-31T05:49:57;101634.16;;;18.97;72.42
24013;BME280;12220;50.194;18.948;2023-07-31T05:52:08;101636.95;;;18.97;72.40
24013;BME280;12220;50.194;18.948;2023-07-31T05:54:09;101631.40;;;18.97;72.34
24013;BME280;12220;50.194;18.948;2023-07-31T05:56:10;101637.82;;;18.98;72.23
24013;BME280;12220;50.194;18.948;2023-07-31T05:58:11;101638.52;;;19.00;72.15
24013;BME280;12220;50.194;18.948;2023-07-31T06:00:19;101643.94;;;19.02;72.13
24013;BME280;12220;50.194;18.948;2023-07-31T06:02:21;101639.14;;;19.04;72.16
24013;BME280;12220;50.194;18.948;2023-07-31T06:04:23;101639.01;;;19.05;72.06
24013;BME280;12220;50.194;18.948;2023-07-31T06:06:26;101643.55;;;19.06;71.49
24013;BME280;12220;50.194;18.948;2023-07-31T06:08:34;101638.14;;;19.05;71.32
24013;BME280;12220;50.194;18.948;2023-07-31T06:10:36;101655.80;;;19.04;71.35
24013;BME280;12220;50.194;18.948;2023-07-31T06:12:37;101651.26;;;19.03;71.27
24013;BME280;12220;50.194;18.948;2023-07-31T06:14:39;101653.03;;;19.04;71.29
24013;BME280;12220;50.194;18.948;2023-07-31T06:16:49;101660.20;;;19.06;71.35
24013;BME280;12220;50.194;18.948;2023-07-31T06:18:50;101653.61;;;19.07;71.35
24013;BME280;12220;50.194;18.948;2023-07-31T06:20:52;101645.13;;;19.09;71.13
24013;BME280;12220;50.194;18.948;2023-07-31T06:22:54;101651.30;;;19.12;71.12
24013;BME280;12220;50.194;18.948;2023-07-31T06:25:04;101646.47;;;19.14;71.16
24013;BME280;12220;50.194;18.948;2023-07-31T06:27:06;101649.11;;;19.16;70.96
24013;BME280;12220;50.194;18.948;2023-07-31T06:29:08;101640.63;;;19.18;70.84
24013;BME280;12220;50.194;18.948;2023-07-31T06:31:09;101647.95;;;19.19;70.76
24013;BME280;12220;50.194;18.948;2023-07-31T06:33:19;101642.12;;;19.22;70.76
24013;BME280;12220;50.194;18.948;2023-07-31T06:35:20;101666.81;;;19.25;70.72
24013;BME280;12220;50.194;18.948;2023-07-31T06:37:21;101642.43;;;19.28;70.71
24013;BME280;12220;50.194;18.948;2023-07-31T06:39:23;101637.45;;;19.32;70.42
24013;BME280;12220;50.194;18.948;2023-07-31T06:41:33;101638.06;;;19.36;70.19
24013;BME280;12220;50.194;18.948;2023-07-31T06:43:35;101640.55;;;19.39;69.90
24013;BME280;12220;50.194;18.948;2023-07-31T06:45:37;101636.62;;;19.41;69.97
24013;BME280;12220;50.194;18.948;2023-07-31T06:47:38;101643.46;;;19.47;70.00
24013;BME280;12220;50.194;18.948;2023-07-31T06:49:48;101639.24;;;19.53;69.92
24013;BME280;12220;50.194;18.948;2023-07-31T06:51:50;101637.93;;;19.57;69.91
24013;BME280;12220;50.194;18.948;2023-07-31T06:53:51;101637.22;;;19.64;69.80
24013;BME280;12220;50.194;18.948;2023-07-31T06:56:00;101639.56;;;19.69;69.53
24013;BME280;12220;50.194;18.948;2023-07-31T06:58:07;101646.59;;;19.73;69.01
24013;BME280;12220;50.194;18.948;2023-07-31T07:00:09;101646.30;;;19.76;68.82
24013;BME280;12220;50.194;18.948;2023-07-31T07:02:11;101643.26;;;19.79;68.10
24013;BME280;12220;50.194;18.948;2023-07-31T07:04:13;101641.79;;;19.85;68.26
24013;BME280;12220;50.194;18.948;2023-07-31T07:06:22;101641.20;;;19.91;68.03
24013;BME280;12220;50.194;18.948;2023-07-31T07:08:24;101637.11;;;19.95;67.99
24013;BME280;12220;50.194;18.948;2023-07-31T07:10:29;101640.00;;;20.03;68.02
24013;BME280;12220;50.194;18.948;2023-07-31T07:12:31;101644.70;;;20.13;68.04
24013;BME280;12220;50.194;18.948;2023-07-31T07:14:33;101646.57;;;20.22;67.74
24013;BME280;12220;50.194;18.948;2023-07-31T07:16:34;101647.02;;;20.27;67.54
24013;BME280;12220;50.194;18.948;2023-07-31T07:18:36;101648.34;;;20.33;66.94
24013;BME280;12220;50.194;18.948;2023-07-31T07:20:37;101645.96;;;20.38;66.79
24013;BME280;12220;50.194;18.948;2023-07-31T07:22:48;101641.70;;;20.44;66.41
24013;BME280;12220;50.194;18.948;2023-07-31T07:24:49;101632.74;;;20.50;66.45
24013;BME280;12220;50.194;18.948;2023-07-31T07:26:51;101633.74;;;20.59;66.36
24013;BME280;12220;50.194;18.948;2023-07-31T07:28:52;101631.39;;;20.64;65.72
24013;BME280;12220;50.194;18.948;2023-07-31T07:31:03;101626.55;;;20.66;65.21
24013;BME280;12220;50.194;18.948;2023-07-31T07:33:07;101631.08;;;20.77;65.48
24013;BME280;12220;50.194;18.948;2023-07-31T07:35:08;101637.34;;;20.88;65.41
24013;BME280;12220;50.194;18.948;2023-07-31T07:37:10;101631.85;;;20.97;64.64
24013;BME280;12220;50.194;18.948;2023-07-31T07:39:18;101630.05;;;21.05;64.71
24013;BME280;12220;50.194;18.948;2023-07-31T07:41:19;101630.47;;;21.11;64.50
24013;BME280;12220;50.194;18.948;2023-07-31T07:43:20;101632.77;;;21.15;63.55
24013;BME280;12220;50.194;18.948;2023-07-31T07:45:22;101633.52;;;21.17;63.53
24013;BME280;12220;50.194;18.948;2023-07-31T07:47:32;101637.57;;;21.23;63.56
24013;BME280;12220;50.194;18.948;2023-07-31T07:49:35;101638.14;;;21.27;63.29
24013;BME280;12220;50.194;18.948;2023-07-31T07:51:38;101635.91;;;21.30;63.19
24013;BME280;12220;50.194;18.948;2023-07-31T07:53:39;101635.47;;;21.35;63.05
24013;BME280;12220;50.194;18.948;2023-07-31T07:55:47;101638.48;;;21.41;63.17
24013;BME280;12220;50.194;18.948;2023-07-31T07:57:49;101638.74;;;21.48;63.09
24013;BME280;12220;50.194;18.948;2023-07-31T07:59:51;101631.55;;;21.55;62.86
24013;BME280;12220;50.194;18.948;2023-07-31T08:01:52;101637.34;;;21.62;62.26
24013;BME280;12220;50.194;18.948;2023-07-31T08:04:02;101628.65;;;21.65;61.55
24013;BME280;12220;50.194;18.948;2023-07-31T08:06:04;101637.27;;;21.72;61.65
24013;BME280;12220;50.194;18.948;2023-07-31T08:08:05;101635.44;;;21.81;61.45
24013;BME280;12220;50.194;18.948;2023-07-31T08:10:07;101640.37;;;21.87;60.97
24013;BME280;12220;50.194;18.948;2023-07-31T08:12:17;101637.41;;;21.88;59.43
24013;BME280;12220;50.194;18.948;2023-07-31T08:14:18;101634.62;;;21.88;58.92
24013;BME280;12220;50.194;18.948;2023-07-31T08:16:19;101637.98;;;21.92;58.88
24013;BME280;12220;50.194;18.948;2023-07-31T08:18:21;101647.95;;;21.94;58.27
24013;BME280;12220;50.194;18.948;2023-07-31T08:20:32;101645.86;;;21.97;58.39
24013;BME280;12220;50.194;18.948;2023-07-31T08:22:33;101646.73;;;21.97;58.63
24013;BME280;12220;50.194;18.948;2023-07-31T08:24:34;101645.38;;;22.01;58.80
24013;BME280;12220;50.194;18.948;2023-07-31T08:26:35;101641.94;;;22.07;58.73
24013;BME280;12220;50.194;18.948;2023-07-31T08:28:46;101640.74;;;22.10;58.34
24013;BME280;12220;50.194;18.948;2023-07-31T08:30:48;101645.30;;;22.11;57.78
24013;BME280;12220;50.194;18.948;2023-07-31T08:32:51;101641.31;;;22.14;58.10
24013;BME280;12220;50.194;18.948;2023-07-31T08:34:52;101642.71;;;22.18;58.13
24013;BME280;12220;50.194;18.948;2023-07-31T08:37:01;101647.09;;;22.20;57.97
24013;BME280;12220;50.194;18.948;2023-07-31T08:39:03;101640.86;;;22.26;58.21
24013;BME280;12220;50.194;18.948;2023-07-31T08:41:04;101651.73;;;22.29;57.24
24013;BME280;12220;50.194;18.948;2023-07-31T08:43:07;101645.35;;;22.37;57.42
24013;BME280;12220;50.194;18.948;2023-07-31T08:45:18;101644.69;;;22.43;57.05
24013;BME280;12220;50.194;18.948;2023-07-31T08:47:21;101641.41;;;22.48;56.63
24013;BME280;12220;50.194;18.948;2023-07-31T08:49:23;101648.98;;;22.56;56.89
24013;BME280;12220;50.194;18.948;2023-07-31T08:51:25;101641.52;;;22.65;56.86
24013;BME280;12220;50.194;18.948;2023-07-31T08:53:31;101641.39;;;22.74;56.40
24013;BME280;12220;50.194;18.948;2023-07-31T08:55:32;101644.07;;;22.84;55.77
24013;BME280;12220;50.194;18.948;2023-07-31T08:57:36;101638.52;;;22.92;55.29
24013;BME280;12220;50.194;18.948;2023-07-31T08:59:38;101630.16;;;23.01;55.04
24013;BME280;12220;50.194;18.948;2023-07-31T09:01:50;101630.21;;;23.09;54.65
24013;BME280;12220;50.194;18.948;2023-07-31T09:03:54;101628.14;;;23.11;52.17
24013;BME280;12220;50.194;18.948;2023-07-31T09:05:56;101633.73;;;23.11;52.74
24013;BME280;12220;50.194;18.948;2023-07-31T09:08:03;101633.88;;;23.09;53.04
24013;BME280;12220;50.194;18.948;2023-07-31T09:10:05;101635.28;;;23.05;51.92
24013;BME280;12220;50.194;18.948;2023-07-31T09:12:07;101629.30;;;23.00;52.64
24013;BME280;12220;50.194;18.948;2023-07-31T09:14:10;101628.97;;;23.03;53.10
24013;BME280;12220;50.194;18.948;2023-07-31T09:16:12;101618.18;;;23.08;52.26
24013;BME280;12220;50.194;18.948;2023-07-31T09:18:15;101619.45;;;23.14;53.00
24013;BME280;12220;50.194;18.948;2023-07-31T09:20:23;101626.80;;;23.23;52.52
24013;BME280;12220;50.194;18.948;2023-07-31T09:22:31;101625.95;;;23.31;51.46
24013;BME280;12220;50.194;18.948;2023-07-31T09:24:33;101612.88;;;23.40;51.88
24013;BME280;12220;50.194;18.948;2023-07-31T09:26:36;101618.49;;;23.48;52.15
24013;BME280;12220;50.194;18.948;2023-07-31T09:28:38;101617.45;;;23.49;50.63
24013;BME280;12220;50.194;18.948;2023-07-31T09:33:02;101616.76;;;23.55;51.15
24013;BME280;12220;50.194;18.948;2023-07-31T09:37:16;101615.73;;;23.73;50.33
24013;BME280;12220;50.194;18.948;2023-07-31T09:39:29;101619.22;;;23.75;49.50
24013;BME280;12220;50.194;18.948;2023-07-31T09:41:31;101615.90;;;23.79;50.04
24013;BME280;12220;50.194;18.948;2023-07-31T09:43:32;101608.91;;;23.83;49.75
24013;BME280;12220;50.194;18.948;2023-07-31T09:45:41;101610.36;;;23.88;49.21
24013;BME280;12220;50.194;18.948;2023-07-31T09:47:47;101610.53;;;23.94;48.86
24013;BME280;12220;50.194;18.948;2023-07-31T09:49:49;101603.55;;;23.98;48.89
24013;BME280;12220;50.194;18.948;2023-07-31T09:51:51;101608.61;;;24.03;49.28
24013;BME280;12220;50.194;18.948;2023-07-31T09:53:53;101607.37;;;24.06;49.23
24013;BME280;12220;50.194;18.948;2023-07-31T09:56:00;101609.13;;;24.07;49.49
24013;BME280;12220;50.194;18.948;2023-07-31T09:58:05;101605.11;;;24.09;49.91
24013;BME280;12220;50.194;18.948;2023-07-31T10:00:08;101602.49;;;24.16;50.13
24013;BME280;12220;50.194;18.948;2023-07-31T10:02:15;101599.84;;;24.23;48.67
24013;BME280;12220;50.194;18.948;2023-07-31T10:04:18;101605.26;;;24.32;48.76
24013;BME280;12220;50.194;18.948;2023-07-31T10:06:34;101599.29;;;24.44;48.70
24013;BME280;12220;50.194;18.948;2023-07-31T10:08:37;101606.98;;;24.50;48.41
24013;BME280;12220;50.194;18.948;2023-07-31T10:10:44;101604.67;;;24.53;48.20
24013;BME280;12220;50.194;18.948;2023-07-31T10:12:48;101580.54;;;24.61;47.96
24013;BME280;12220;50.194;18.948;2023-07-31T10:14:51;101585.76;;;24.72;47.34
24013;BME280;12220;50.194;18.948;2023-07-31T10:16:54;101590.81;;;24.77;46.02
24013;BME280;12220;50.194;18.948;2023-07-31T10:18:56;101579.59;;;24.85;46.49
24013;BME280;12220;50.194;18.948;2023-07-31T10:20:57;101582.55;;;24.92;46.88
24013;BME280;12220;50.194;18.948;2023-07-31T10:23:03;101583.90;;;24.96;46.71
24013;BME280;12220;50.194;18.948;2023-07-31T10:25:08;101402.19;;;23.57;45.17
24013;BME280;12220;50.194;18.948;2023-07-31T10:27:10;101578.27;;;25.04;45.90
24013;BME280;12220;50.194;18.948;2023-07-31T10:29:11;101573.70;;;25.03;45.21
24013;BME280;12220;50.194;18.948;2023-07-31T10:31:17;101566.91;;;24.97;45.21
24013;BME280;12220;50.194;18.948;2023-07-31T10:33:20;101563.79;;;24.92;44.99
24013;BME280;12220;50.194;18.948;2023-07-31T10:35:22;101565.02;;;24.89;45.39
24013;BME280;12220;50.194;18.948;2023-07-31T10:37:29;101563.79;;;24.92;44.93
24013;BME280;12220;50.194;18.948;2023-07-31T10:39:38;101552.71;;;24.99;45.11
24013;BME280;12220;50.194;18.948;2023-07-31T10:41:40;101563.58;;;25.02;44.76
24013;BME280;12220;50.194;18.948;2023-07-31T10:43:41;101561.27;;;25.05;45.02
24013;BME280;12220;50.194;18.948;2023-07-31T10:45:43;101552.19;;;25.03;45.09
24013;BME280;12220;50.194;18.948;2023-07-31T10:47:47;101549.20;;;25.05;45.32